Terminal Aerodrome Forecast
Issued by NWS Jacksonville, FL

Home | Current Version | Previous Version | Text Only | Print | Product List | Glossary On
Versions: 1 2 3 4 5 6 7 8 9 10 11 12 13 14 15 16 17 18 19
000
FTUS42 KJAX 301050 AAC
TAFGNV
TAF AMD
KGNV 301050Z 3011/3106 06006KT P6SM SCT010 SCT050
     FM301200 07009KT P6SM VCSH SCT020 BKN050
     FM301800 08012G20KT 6SM SHRA VCTS SCT025CB BKN040 OVC060
     FM302300 08010KT P6SM VCSH SCT025 BKN050 OVC060=

USA.gov is the U.S. government's official web portal to all federal, state and local government web resources and services.